TSC66 EGKK-CYYT
Flight info
| Callsign | TSC66 |
|---|---|
| Flight time | N/A |
| Altitude | 34000 |
| Route | IMVUR N63 SAM N19 ADKIK DCT PEWBI DCT MOPAT DCT TOBOR/M078F360 DCT 5230N02000W 5130N03000W 50N040W 4830N05000W DCT MUSAK/N0442F360 DCT TIGOR TIGOR5 |
| Aircraft | A21N/M-SDE2E3FGHIRWXY/LB1 |
Departure
| Time | N/A |
|---|---|
| Airport | London Gatwick Airport (EGKK) |
Arrival
| Time | 2026-05-07 22:00 |
|---|---|
| Airport | St. John's International Airport (CYYT) |
| Time | Latitude | Longitude | Altitude | Speed | Heading |
|---|---|---|---|---|---|
| 2026-05-07 21:23 | 48.72027 | -48.55109 | 34034 ft | 396 kts | 264° |
| 2026-05-07 21:23 | 48.70498 | -48.63092 | 34034 ft | 396 kts | 264° |
| 2026-05-07 21:24 | 48.68955 | -48.71121 | 34035 ft | 396 kts | 264° |
| 2026-05-07 21:24 | 48.67413 | -48.79115 | 34034 ft | 396 kts | 264° |
| 2026-05-07 21:25 | 48.65860 | -48.87125 | 34034 ft | 397 kts | 264° |
| 2026-05-07 21:25 | 48.64299 | -48.95142 | 34034 ft | 396 kts | 264° |
| 2026-05-07 21:26 | 48.62738 | -49.03128 | 34034 ft | 397 kts | 264° |
| 2026-05-07 21:26 | 48.61171 | -49.11111 | 34034 ft | 398 kts | 264° |
| 2026-05-07 21:27 | 48.59596 | -49.19103 | 34034 ft | 398 kts | 264° |
| 2026-05-07 21:27 | 48.58001 | -49.27156 | 34034 ft | 399 kts | 264° |
| 2026-05-07 21:28 | 48.56411 | -49.35149 | 34034 ft | 399 kts | 264° |
| 2026-05-07 21:28 | 48.54809 | -49.43169 | 34034 ft | 399 kts | 264° |
| 2026-05-07 21:29 | 48.53202 | -49.51186 | 34034 ft | 399 kts | 264° |
| 2026-05-07 21:29 | 48.51581 | -49.59239 | 34034 ft | 399 kts | 264° |
| 2026-05-07 21:30 | 48.49966 | -49.67224 | 34036 ft | 399 kts | 263° |
| 2026-05-07 21:30 | 48.48350 | -49.75201 | 34035 ft | 399 kts | 263° |
| 2026-05-07 21:31 | 48.46724 | -49.83187 | 34034 ft | 399 kts | 263° |
| 2026-05-07 21:31 | 48.45092 | -49.91169 | 34034 ft | 399 kts | 263° |
| 2026-05-07 21:32 | 48.43452 | -49.99149 | 34034 ft | 399 kts | 263° |
| 2026-05-07 21:32 | 48.41807 | -50.07127 | 34034 ft | 399 kts | 263° |
| 2026-05-07 21:33 | 48.40152 | -50.15120 | 34034 ft | 399 kts | 263° |
| 2026-05-07 21:33 | 48.38495 | -50.23090 | 34034 ft | 399 kts | 263° |
| 2026-05-07 21:34 | 48.36844 | -50.31000 | 34034 ft | 399 kts | 263° |
| 2026-05-07 21:34 | 48.35178 | -50.38952 | 34035 ft | 399 kts | 263° |
| 2026-05-07 21:35 | 48.33506 | -50.46902 | 34035 ft | 399 kts | 263° |
| 2026-05-07 21:35 | 48.31829 | -50.54838 | 34035 ft | 399 kts | 263° |
| 2026-05-07 21:36 | 48.30145 | -50.62783 | 34035 ft | 399 kts | 263° |
| 2026-05-07 21:36 | 48.28457 | -50.70715 | 34035 ft | 398 kts | 262° |
| 2026-05-07 21:37 | 48.26770 | -50.78621 | 34034 ft | 398 kts | 262° |
| 2026-05-07 21:37 | 48.25077 | -50.86518 | 34034 ft | 398 kts | 262° |
| 2026-05-07 21:38 | 48.23378 | -50.94428 | 34034 ft | 399 kts | 262° |
| 2026-05-07 21:38 | 48.21659 | -51.02399 | 34034 ft | 401 kts | 261° |
| 2026-05-07 21:39 | 48.19933 | -51.10358 | 34033 ft | 403 kts | 261° |
| 2026-05-07 21:39 | 48.18191 | -51.18344 | 34034 ft | 404 kts | 261° |
| 2026-05-07 21:40 | 48.16435 | -51.26355 | 34035 ft | 404 kts | 261° |
| 2026-05-07 21:40 | 48.14690 | -51.34299 | 34035 ft | 404 kts | 261° |
| 2026-05-07 21:41 | 48.12926 | -51.42300 | 34035 ft | 404 kts | 261° |
| 2026-05-07 21:41 | 48.11153 | -51.50311 | 34026 ft | 403 kts | 261° |
| 2026-05-07 21:42 | 48.10276 | -51.54261 | 33659 ft | 403 kts | 261° |
| 2026-05-07 21:42 | 48.09390 | -51.58268 | 32676 ft | 413 kts | 261° |
| 2026-05-07 21:42 | 48.08479 | -51.62394 | 31676 ft | 421 kts | 260° |
| 2026-05-07 21:42 | 48.07554 | -51.66553 | 30849 ft | 424 kts | 259° |
| 2026-05-07 21:43 | 48.06617 | -51.70737 | 30061 ft | 426 kts | 258° |
| 2026-05-07 21:43 | 48.05673 | -51.74944 | 29240 ft | 429 kts | 258° |
| 2026-05-07 21:43 | 48.04730 | -51.79147 | 28383 ft | 432 kts | 258° |
| 2026-05-07 21:43 | 48.03780 | -51.83358 | 27271 ft | 428 kts | 258° |
| 2026-05-07 21:44 | 48.02841 | -51.87524 | 25559 ft | 434 kts | 257° |
| 2026-05-07 21:44 | 48.01880 | -51.91801 | 23542 ft | 444 kts | 257° |
| 2026-05-07 21:44 | 48.00856 | -51.96073 | 21811 ft | 445 kts | 253° |
| 2026-05-07 21:44 | 47.99584 | -52.00187 | 20845 ft | 429 kts | 248° |
| 2026-05-07 21:45 | 47.98137 | -52.03940 | 20538 ft | 414 kts | 243° |
| 2026-05-07 21:45 | 47.96522 | -52.07571 | 20226 ft | 417 kts | 241° |
| 2026-05-07 21:45 | 47.94898 | -52.11114 | 19790 ft | 415 kts | 241° |
| 2026-05-07 21:45 | 47.93267 | -52.14647 | 19263 ft | 411 kts | 240° |
| 2026-05-07 21:46 | 47.91660 | -52.18118 | 18723 ft | 408 kts | 240° |
| 2026-05-07 21:46 | 47.90045 | -52.21606 | 18173 ft | 404 kts | 240° |
| 2026-05-07 21:46 | 47.88456 | -52.25017 | 17631 ft | 400 kts | 240° |
| 2026-05-07 21:46 | 47.86884 | -52.28374 | 17095 ft | 396 kts | 240° |
| 2026-05-07 21:47 | 47.85325 | -52.31709 | 16561 ft | 392 kts | 240° |
| 2026-05-07 21:47 | 47.83776 | -52.35028 | 16030 ft | 389 kts | 239° |
| 2026-05-07 21:47 | 47.82251 | -52.38299 | 15505 ft | 385 kts | 239° |
| 2026-05-07 21:47 | 47.80716 | -52.41590 | 14974 ft | 383 kts | 239° |
| 2026-05-07 21:48 | 47.79198 | -52.44847 | 14446 ft | 382 kts | 239° |
| 2026-05-07 21:48 | 47.77683 | -52.48093 | 13927 ft | 381 kts | 239° |
| 2026-05-07 21:48 | 47.76179 | -52.51310 | 13407 ft | 379 kts | 239° |
| 2026-05-07 21:48 | 47.74676 | -52.54523 | 12886 ft | 378 kts | 238° |
| 2026-05-07 21:49 | 47.73194 | -52.57688 | 12371 ft | 376 kts | 238° |
| 2026-05-07 21:49 | 47.71690 | -52.60895 | 11849 ft | 374 kts | 238° |
| 2026-05-07 21:49 | 47.70120 | -52.63902 | 11241 ft | 376 kts | 228° |
| 2026-05-07 21:49 | 47.67948 | -52.66053 | 10136 ft | 380 kts | 207° |
| 2026-05-07 21:50 | 47.65537 | -52.67436 | 9313 ft | 365 kts | 202° |
| 2026-05-07 21:50 | 47.63217 | -52.68689 | 8588 ft | 348 kts | 204° |
| 2026-05-07 21:50 | 47.60994 | -52.69984 | 7774 ft | 335 kts | 205° |
| 2026-05-07 21:50 | 47.58907 | -52.71272 | 7156 ft | 318 kts | 206° |
| 2026-05-07 21:51 | 47.56908 | -52.72410 | 6574 ft | 307 kts | 196° |
| 2026-05-07 21:51 | 47.54805 | -52.72341 | 5968 ft | 304 kts | 166° |
| 2026-05-07 21:51 | 47.53034 | -52.70686 | 5467 ft | 302 kts | 135° |
| 2026-05-07 21:51 | 47.52118 | -52.67956 | 5057 ft | 297 kts | 101° |
| 2026-05-07 21:52 | 47.52344 | -52.65069 | 4994 ft | 278 kts | 65° |
| 2026-05-07 21:52 | 47.53339 | -52.62729 | 4997 ft | 260 kts | 56° |
| 2026-05-07 21:52 | 47.54214 | -52.60395 | 4992 ft | 259 kts | 69° |
| 2026-05-07 21:52 | 47.54754 | -52.57863 | 4991 ft | 259 kts | 80° |
| 2026-05-07 21:53 | 47.55040 | -52.55241 | 4993 ft | 257 kts | 86° |
| 2026-05-07 21:53 | 47.55203 | -52.52596 | 4963 ft | 257 kts | 89° |
| 2026-05-07 21:53 | 47.55324 | -52.49963 | 4648 ft | 254 kts | 89° |
| 2026-05-07 21:53 | 47.55458 | -52.47369 | 4376 ft | 255 kts | 83° |
| 2026-05-07 21:54 | 47.56198 | -52.45015 | 4073 ft | 258 kts | 44° |
| 2026-05-07 21:54 | 47.57741 | -52.43798 | 3901 ft | 252 kts | 2° |
| 2026-05-07 21:54 | 47.59351 | -52.44207 | 3777 ft | 224 kts | 320° |
| 2026-05-07 21:54 | 47.60542 | -52.45662 | 3706 ft | 221 kts | 311° |
| 2026-05-07 21:55 | 47.61706 | -52.47121 | 3541 ft | 221 kts | 316° |
| 2026-05-07 21:55 | 47.62985 | -52.48410 | 3336 ft | 218 kts | 321° |
| 2026-05-07 21:55 | 47.64029 | -52.49871 | 2995 ft | 193 kts | 287° |
| 2026-05-07 21:55 | 47.64123 | -52.51580 | 2986 ft | 152 kts | 251° |
| 2026-05-07 21:56 | 47.63863 | -52.53117 | 3008 ft | 156 kts | 250° |
| 2026-05-07 21:56 | 47.63619 | -52.54675 | 2922 ft | 158 kts | 252° |
| 2026-05-07 21:56 | 47.63431 | -52.56279 | 2703 ft | 156 kts | 255° |
| 2026-05-07 21:56 | 47.63311 | -52.57872 | 2496 ft | 155 kts | 257° |
| 2026-05-07 21:57 | 47.63226 | -52.59445 | 2330 ft | 154 kts | 258° |
| 2026-05-07 21:57 | 47.63150 | -52.61028 | 2118 ft | 153 kts | 258° |
| 2026-05-07 21:57 | 47.63073 | -52.62622 | 1906 ft | 153 kts | 257° |
| 2026-05-07 21:57 | 47.62998 | -52.64171 | 1695 ft | 149 kts | 257° |
| 2026-05-07 21:58 | 47.62924 | -52.65687 | 1492 ft | 147 kts | 256° |
| 2026-05-07 21:58 | 47.62850 | -52.67196 | 1308 ft | 148 kts | 257° |
| 2026-05-07 21:58 | 47.62773 | -52.68745 | 1112 ft | 152 kts | 256° |
| 2026-05-07 21:58 | 47.62697 | -52.70324 | 905 ft | 153 kts | 256° |
| 2026-05-07 21:59 | 47.62620 | -52.71922 | 700 ft | 155 kts | 256° |
| 2026-05-07 21:59 | 47.62545 | -52.73502 | 491 ft | 154 kts | 256° |
| 2026-05-07 21:59 | 47.62460 | -52.75010 | 447 ft | 117 kts | 261° |
| 2026-05-07 21:59 | 47.62418 | -52.75850 | 477 ft | 69 kts | 266° |
| 2026-05-07 22:00 | 47.62393 | -52.76424 | 490 ft | 42 kts | 266° |
| 2026-05-07 22:00 | 47.62380 | -52.76750 | 482 ft | 28 kts | 264° |
| 2026-05-07 22:00 | 47.62331 | -52.77003 | 475 ft | 22 kts | 228° |
| 2026-05-07 22:00 | 47.62373 | -52.77110 | 466 ft | 7 kts | 59° |
| 2026-05-07 22:01 | 47.62369 | -52.77026 | 471 ft | 9 kts | 88° |
| 2026-05-07 22:01 | 47.62374 | -52.76886 | 476 ft | 18 kts | 90° |
| 2026-05-07 22:01 | 47.62381 | -52.76662 | 485 ft | 25 kts | 84° |
| 2026-05-07 22:01 | 47.62399 | -52.76351 | 492 ft | 36 kts | 88° |
| 2026-05-07 22:02 | 47.62416 | -52.75936 | 482 ft | 41 kts | 90° |
| 2026-05-07 22:02 | 47.62437 | -52.75470 | 460 ft | 48 kts | 84° |
| 2026-05-07 22:02 | 47.62458 | -52.75006 | 447 ft | 25 kts | 110° |
| 2026-05-07 22:02 | 47.62372 | -52.74931 | 447 ft | 12 kts | 137° |
| 2026-05-07 22:03 | 47.62283 | -52.74804 | 446 ft | 22 kts | 137° |
| 2026-05-07 22:03 | 47.62161 | -52.74643 | 444 ft | 24 kts | 139° |
| 2026-05-07 22:03 | 47.62023 | -52.74475 | 440 ft | 31 kts | 134° |
| 2026-05-07 22:03 | 47.61835 | -52.74222 | 434 ft | 38 kts | 136° |
| 2026-05-07 22:04 | 47.61672 | -52.74068 | 431 ft | 10 kts | 216° |
| 2026-05-07 22:04 | 47.61622 | -52.74155 | 436 ft | 14 kts | 229° |
| 2026-05-07 22:04 | 47.61544 | -52.74283 | 442 ft | 16 kts | 226° |
| 2026-05-07 22:04 | 47.61454 | -52.74351 | 447 ft | 8 kts | 198° |
| 2026-05-07 22:05 | 47.61410 | -52.74379 | 449 ft | 3 kts | 204° |
| 2026-05-07 22:05 | 47.61402 | -52.74384 | 449 ft | 0 kts | 204° |